マクタン・セブ国際空港の過去48時間の天気

マクタン・セブ国際空港 (Masbate)

現在時刻: 7/27 00:06 PST (7/26 16:06 UTC) 以下の時間は現地時間です。

過去48時間のMETAR気象情報
時間 風向 風速(m/s) 視程 気温(℃) 湿度(%) 気圧(hPa) 天気現象
26 23:00 西南西 5 10km以上 28 79 1008
26 22:00 西南西 5 10km以上 29 74 1008
26 21:00 西南西 2 10km以上 29 74 1008
26 20:00 南西 5 10km以上 29 74 1008
26 19:00 西南西 5 10km以上 30 70 1007
26 18:00 南西 5 10km以上 31 66 1006
26 17:00 南西 6 10km以上 31 70 1006
26 16:00 南西 6 10km以上 31 66 1006
26 15:00 - - 10km以上 33 59 1006
26 14:00 西南西 6 10km以上 32 59 1005 周辺でしゅう雨
26 13:00 南南西 8 10km以上 33 59 1006
26 12:00 南南西 6 10km以上 33 59 1007
26 11:00 南南西 8 10km以上 33 59 1008
26 10:00 南南西 8 10km以上 32 67 1008
26 09:00 南西 6 10km以上 32 67 1009
26 08:00 南西 6 10km以上 30 70 1008
26 07:00 西南西 5 10km以上 29 74 1008
26 06:00 西南西 4 10km以上 27 79 1008
26 05:00 南西 2 10km以上 27 79 1007
26 04:00 不定 1 10km以上 27 79 1007
26 03:00 南南西 2 10km以上 27 79 1008
26 02:00 南西 3 10km以上 27 79 1009
26 01:00 西南西 3 10km以上 27 79 1009
26 00:00 南西 4 10km以上 28 79 1009
25 23:00 西南西 4 10km以上 29 70 1010
25 22:00 南西 2 10km以上 29 70 1010
25 21:00 南西 3 10km以上 29 70 1009
25 20:00 南西 2 10km以上 29 70 1009
25 19:00 南南西 2 10km以上 30 70 1008
25 18:00 南西 5 10km以上 31 62 1008
25 17:00 南西 5 10km以上 32 63 1007
25 16:00 南西 7 10km以上 32 67 1007
25 15:00 南南西 7 10km以上 32 67 1007
25 14:00 南南西 8 10km以上 32 63 1007
25 13:00 南西 11 10km以上 34 56 1008
25 12:00 南西 9 10km以上 32 63 1008
25 11:00 南南西 9 10km以上 33 63 1009
25 10:00 南西 8 10km以上 32 63 1009
25 09:00 西南西 5 10km以上 31 62 1010
25 08:00 西 5 9000m 29 70 1010 弱いしゅう雨
25 07:00 西 4 10km以上 29 70 1009
25 06:00 西南西 3 10km以上 28 79 1009
25 05:00 南西 3 10km以上 27 84 1009
25 04:00 南西 4 10km以上 28 84 1009
25 03:00 南西 3 10km以上 28 84 1009
25 02:00 南西 3 10km以上 27 79 1008
25 01:00 南西 4 10km以上 28 74 1009
RPVM 261500Z 24009KT 9999 FEW020 BKN300 28/24 Q1008 RMK A2977
RPVM 261400Z 24010KT 9999 FEW020 BKN100 29/24 Q1008 RMK A2977
RPVM 261300Z 24004KT 9999 FEW020 OVC100 29/24 Q1008 RMK A2977
RPVM 261200Z 23010KT 9999 FEW020 OVC100 29/24 Q1008 RMK A2977
RPVM 261100Z 25009KT 9999 FEW020 OVC100 30/24 Q1007 RMK A2974
RPVM 261000Z 23009KT 9999 FEW018CB OVC090 31/24 Q1006 RMK A2971 CB E
RPVM 260900Z 22011KT 9999 FEW018CB OVC090 31/25 Q1006 RMK A2971 CB SW
RPVM 260800Z 22012KT 9999 FEW020 OVC100 31/24 Q1006 RMK A2971
RPVM 260700Z 2013KT 190V250 9999 FEW020 BKN100 33/24 Q1006 RMK A2971
RPVM 260600Z 24012KT 9999 VCSH SCT016 SCT070 32/23 Q1005 RMK A2968 VCSH W
RPVM 260500Z 20015KT 9999 FEW020 SCT300 33/24 Q1006 RMK A2971
RPVM 260400Z 20012KT 170V230 9999 SCT020 33/24 Q1007 RMK A2974
RPVM 260300Z 20015KT 9999 SCT020 33/24 Q1008 RMK A2977
RPVM 260200Z 21016KT 9999 FEW020 32/25 Q1008 RMK A2977
RPVM 260100Z 23011KT 9999 FEW020 32/25 Q1009 RMK A2980
RPVM 260000Z 23011KT 9999 FEW020 SCT100 30/24 Q1008 RMK A2977
RPVM 252300Z 24010KT 9999 FEW020 BKN300 29/24 Q1008 RMK A2977
RPVM 252200Z 24007KT 9999 FEW020 BKN300 27/23 Q1008 RMK A2977
RPVM 252100Z 23004KT 9999 FEW020 SCT300 27/23 Q1007 RMK A2974
RPVM 252000Z VRB01KT 9999 FEW020 SCT300 27/23 Q1007 RMK A2974
RPVM 251900Z 21004KT 9999 FEW020 SCT300 27/23 Q1008 RMK A2977
RPVM 251800Z 22006KT 9999 FEW020 SCT300 27/23 Q1009 RMK A2980
RPVM 251700Z 24006KT 9999 FEW020 SCT300 27/23 Q1009 RMK A2980
RPVM 251600Z 22007KT 9999 FEW020 SCT100 28/24 Q1009 RMK A2980
RPVM 251500Z 25008KT 9999 FEW020 BKN100 29/23 Q1010 RMK A2983
RPVM 251400Z 23003KT 180V260 9999 FEW020 BKN100 29/23 Q1010 RMK A2983
RPVM 251300Z 23005KT 9999 FEW020 BKN100 29/23 Q1009 RMK A2980
RPVM 251200Z 23004KT 9999 FEW020 BKN300 29/23 Q1009 RMK A2980
RPVM 251100Z 21004KT 9999 FEW020 BKN300 30/24 Q1008 RMK A2977
RPVM 251000Z 23009KT 9999 FEW020 BKN300 31/23 Q1008 RMK A2977
RPVM 250900Z 22010KT 9999 SCT020 BKN250 32/24 Q1007 RMK A2974
RPVM 250800Z 22013KT 180V240 9999 SCT020 BKN100 32/25 Q1007 RMK A2974
RPVM 250700Z 21013KT 9999 SCT020 BKN300 32/25 Q1007 RMK A2974
RPVM 250600Z 20015KT 170V230 9999 SCT020 BKN300 32/24 Q1007 RMK A2974
RPVM 250500Z 23022KT 9999 SCT020 34/24 Q1008 RMK A2977
RPVM 250400Z 22018KT 9999 FEW020 SCT300 32/24 Q1008 RMK A2977
RPVM 250300Z 21017KT 9999 FEW020 33/25 Q1009 RMK A2980
RPVM 250200Z 23015KT 9999 FEW020 32/24 Q1009 RMK A2980
RPVM 250100Z 25010KT 210V270 9999 FEW020 31/23 Q1010 RMK A2983
RPVM 250000Z 27009KT 9000 -SHRA FEW018CB BKN090 29/23 Q1010 RMK A2983 CB SW
RPVM 242300Z 26008KT 9999 FEW020 BKN250 29/23 Q1009 RMK A2980
RPVM 242200Z 25005KT 9999 FEW020 BKN300 28/24 Q1009 RMK A2980
RPVM 242100Z 22006KT 9999 FEW020 27/24 Q1009 RMK A2980
RPVM 242000Z 23008KT 9999 FEW020 28/25 Q1009 RMK A2980
RPVM 241900Z 22006KT 9999 SCT020TCU 28/25 Q1009 RMK A2980 TCU NE
RPVM 241800Z 22005KT 9999 FEW020 SCT100 27/23 Q1008 RMK A2977
RPVM 241700Z 23008KT 9999 FEW020 SCT300 28/23 Q1009 RMK A2980